sensor_id;sensor_type;location;lat;lon;timestamp;temperature;humidity
65559;DHT22;52203;51.998;5.140;2023-06-01T00:01:27;6.46;118.99
65559;DHT22;52203;51.998;5.140;2023-06-01T00:03:58;6.49;118.99
65559;DHT22;52203;51.998;5.140;2023-06-01T00:06:24;6.44;118.99
65559;DHT22;52203;51.998;5.140;2023-06-01T00:08:54;6.43;118.99
65559;DHT22;52203;51.998;5.140;2023-06-01T00:11:20;6.40;118.99
65559;DHT22;52203;51.998;5.140;2023-06-01T00:13:47;6.43;118.99
65559;DHT22;52203;51.998;5.140;2023-06-01T00:16:13;6.38;118.99
65559;DHT22;52203;51.998;5.140;2023-06-01T00:18:39;6.34;118.99
65559;DHT22;52203;51.998;5.140;2023-06-01T00:21:05;6.34;118.99
65559;DHT22;52203;51.998;5.140;2023-06-01T00:23:31;6.33;118.99
65559;DHT22;52203;51.998;5.140;2023-06-01T00:25:57;6.34;118.99
65559;DHT22;52203;51.998;5.140;2023-06-01T00:28:22;6.33;118.99
65559;DHT22;52203;51.998;5.140;2023-06-01T00:30:48;6.34;118.99
65559;DHT22;52203;51.998;5.140;2023-06-01T00:33:13;6.33;118.99
65559;DHT22;52203;51.998;5.140;2023-06-01T00:35:39;6.30;118.99
65559;DHT22;52203;51.998;5.140;2023-06-01T00:38:04;6.30;118.99
65559;DHT22;52203;51.998;5.140;2023-06-01T00:40:32;6.31;118.99
65559;DHT22;52203;51.998;5.140;2023-06-01T00:42:58;6.33;118.99
65559;DHT22;52203;51.998;5.140;2023-06-01T00:45:23;6.34;118.99
65559;DHT22;52203;51.998;5.140;2023-06-01T00:47:48;6.35;118.99
65559;DHT22;52203;51.998;5.140;2023-06-01T00:50:14;6.34;118.99
65559;DHT22;52203;51.998;5.140;2023-06-01T00:52:40;6.34;118.99
65559;DHT22;52203;51.998;5.140;2023-06-01T00:55:07;6.35;118.99
65559;DHT22;52203;51.998;5.140;2023-06-01T00:57:34;6.35;118.99
65559;DHT22;52203;51.998;5.140;2023-06-01T01:00:02;6.36;118.99
65559;DHT22;52203;51.998;5.140;2023-06-01T01:02:35;6.38;118.99
65559;DHT22;52203;51.998;5.140;2023-06-01T01:05:03;6.38;118.99
65559;DHT22;52203;51.998;5.140;2023-06-01T01:07:46;6.38;118.99
65559;DHT22;52203;51.998;5.140;2023-06-01T01:12:54;6.35;118.99
65559;DHT22;52203;51.998;5.140;2023-06-01T01:15:26;6.34;118.99
65559;DHT22;52203;51.998;5.140;2023-06-01T01:18:00;6.35;118.99
65559;DHT22;52203;51.998;5.140;2023-06-01T01:20:33;6.35;118.99
65559;DHT22;52203;51.998;5.140;2023-06-01T01:23:09;6.35;118.99
65559;DHT22;52203;51.998;5.140;2023-06-01T01:29:10;6.36;118.99
65559;DHT22;52203;51.998;5.140;2023-06-01T01:31:38;6.38;118.99
65559;DHT22;52203;51.998;5.140;2023-06-01T01:34:05;6.39;118.99
65559;DHT22;52203;51.998;5.140;2023-06-01T01:36:32;6.40;118.99
65559;DHT22;52203;51.998;5.140;2023-06-01T01:38:58;6.40;118.99
65559;DHT22;52203;51.998;5.140;2023-06-01T01:41:23;6.40;118.99
65559;DHT22;52203;51.998;5.140;2023-06-01T01:43:51;6.37;118.99
65559;DHT22;52203;51.998;5.140;2023-06-01T01:46:26;6.37;118.99
65559;DHT22;52203;51.998;5.140;2023-06-01T01:54:27;6.33;118.99
65559;DHT22;52203;51.998;5.140;2023-06-01T01:56:57;6.31;118.99
65559;DHT22;52203;51.998;5.140;2023-06-01T01:59:23;6.33;118.99
65559;DHT22;52203;51.998;5.140;2023-06-01T02:01:50;6.31;118.99
65559;DHT22;52203;51.998;5.140;2023-06-01T02:04:16;6.31;118.99
65559;DHT22;52203;51.998;5.140;2023-06-01T02:06:41;6.31;118.99
65559;DHT22;52203;51.998;5.140;2023-06-01T02:09:07;6.31;118.99
65559;DHT22;52203;51.998;5.140;2023-06-01T02:11:35;6.30;118.99
65559;DHT22;52203;51.998;5.140;2023-06-01T02:14:01;6.30;118.99
65559;DHT22;52203;51.998;5.140;2023-06-01T02:16:27;6.31;118.99
65559;DHT22;52203;51.998;5.140;2023-06-01T02:18:52;6.30;118.99
65559;DHT22;52203;51.998;5.140;2023-06-01T02:21:19;6.29;118.99
65559;DHT22;52203;51.998;5.140;2023-06-01T02:23:44;6.30;118.99
65559;DHT22;52203;51.998;5.140;2023-06-01T02:26:10;6.30;118.99
65559;DHT22;52203;51.998;5.140;2023-06-01T02:28:37;6.33;118.99
65559;DHT22;52203;51.998;5.140;2023-06-01T02:31:04;6.35;118.99
65559;DHT22;52203;51.998;5.140;2023-06-01T02:33:29;6.33;118.99
65559;DHT22;52203;51.998;5.140;2023-06-01T02:35:55;6.34;118.99
65559;DHT22;52203;51.998;5.140;2023-06-01T02:38:20;6.34;118.99
65559;DHT22;52203;51.998;5.140;2023-06-01T02:40:46;6.34;118.99
65559;DHT22;52203;51.998;5.140;2023-06-01T02:43:11;6.33;118.99
65559;DHT22;52203;51.998;5.140;2023-06-01T02:45:37;6.30;118.99
65559;DHT22;52203;51.998;5.140;2023-06-01T02:48:04;6.33;118.99
65559;DHT22;52203;51.998;5.140;2023-06-01T02:50:29;6.33;118.99
65559;DHT22;52203;51.998;5.140;2023-06-01T02:52:55;6.31;118.99
65559;DHT22;52203;51.998;5.140;2023-06-01T02:55:20;6.33;118.99
65559;DHT22;52203;51.998;5.140;2023-06-01T02:57:46;6.31;118.99
65559;DHT22;52203;51.998;5.140;2023-06-01T03:00:12;6.31;118.99
65559;DHT22;52203;51.998;5.140;2023-06-01T03:02:44;6.30;118.99
65559;DHT22;52203;51.998;5.140;2023-06-01T03:05:11;6.28;118.99
65559;DHT22;52203;51.998;5.140;2023-06-01T03:07:41;6.28;118.99
65559;DHT22;52203;51.998;5.140;2023-06-01T03:10:07;6.25;118.99
65559;DHT22;52203;51.998;5.140;2023-06-01T03:12:33;6.26;118.99
65559;DHT22;52203;51.998;5.140;2023-06-01T03:14:58;6.24;118.99
65559;DHT22;52203;51.998;5.140;2023-06-01T03:17:24;6.24;118.99
65559;DHT22;52203;51.998;5.140;2023-06-01T03:19:50;6.25;118.99
65559;DHT22;52203;51.998;5.140;2023-06-01T03:22:15;6.25;118.99
65559;DHT22;52203;51.998;5.140;2023-06-01T03:24:41;6.25;118.99
65559;DHT22;52203;51.998;5.140;2023-06-01T03:27:07;6.24;118.99
65559;DHT22;52203;51.998;5.140;2023-06-01T03:29:32;6.26;118.99
65559;DHT22;52203;51.998;5.140;2023-06-01T03:31:58;6.26;118.99
65559;DHT22;52203;51.998;5.140;2023-06-01T03:34:25;6.26;118.99
65559;DHT22;52203;51.998;5.140;2023-06-01T03:36:52;6.28;118.99
65559;DHT22;52203;51.998;5.140;2023-06-01T03:39:17;6.25;118.99
65559;DHT22;52203;51.998;5.140;2023-06-01T03:41:43;6.26;118.99
65559;DHT22;52203;51.998;5.140;2023-06-01T03:44:10;6.26;118.99
65559;DHT22;52203;51.998;5.140;2023-06-01T03:46:35;6.24;118.99
65559;DHT22;52203;51.998;5.140;2023-06-01T03:49:01;6.24;118.99
65559;DHT22;52203;51.998;5.140;2023-06-01T03:51:26;6.23;118.99
65559;DHT22;52203;51.998;5.140;2023-06-01T03:53:52;6.21;118.99
65559;DHT22;52203;51.998;5.140;2023-06-01T03:56:17;6.22;118.99
65559;DHT22;52203;51.998;5.140;2023-06-01T03:58:45;6.22;118.99
65559;DHT22;52203;51.998;5.140;2023-06-01T04:01:11;6.22;118.99
65559;DHT22;52203;51.998;5.140;2023-06-01T04:03:38;6.20;118.99
65559;DHT22;52203;51.998;5.140;2023-06-01T04:06:04;6.19;118.99
65559;DHT22;52203;51.998;5.140;2023-06-01T04:08:37;6.17;118.99
65559;DHT22;52203;51.998;5.140;2023-06-01T04:11:07;6.17;118.99
65559;DHT22;52203;51.998;5.140;2023-06-01T04:13:33;6.16;118.99
65559;DHT22;52203;51.998;5.140;2023-06-01T04:15:58;6.17;118.99
65559;DHT22;52203;51.998;5.140;2023-06-01T04:18:23;6.16;118.99
65559;DHT22;52203;51.998;5.140;2023-06-01T04:20:49;6.20;118.99
65559;DHT22;52203;51.998;5.140;2023-06-01T04:23:15;6.21;118.99
65559;DHT22;52203;51.998;5.140;2023-06-01T04:25:41;6.22;118.99
65559;DHT22;52203;51.998;5.140;2023-06-01T04:28:09;6.23;118.99
65559;DHT22;52203;51.998;5.140;2023-06-01T04:30:35;6.24;118.99
65559;DHT22;52203;51.998;5.140;2023-06-01T04:33:01;6.25;118.99
65559;DHT22;52203;51.998;5.140;2023-06-01T04:35:26;6.26;118.99
65559;DHT22;52203;51.998;5.140;2023-06-01T04:37:52;6.29;118.99
65559;DHT22;52203;51.998;5.140;2023-06-01T04:40:17;6.30;118.99
65559;DHT22;52203;51.998;5.140;2023-06-01T04:42:44;6.35;118.99
65559;DHT22;52203;51.998;5.140;2023-06-01T04:45:15;6.41;118.99
65559;DHT22;52203;51.998;5.140;2023-06-01T04:47:41;6.45;118.99
65559;DHT22;52203;51.998;5.140;2023-06-01T04:50:11;6.52;118.99
65559;DHT22;52203;51.998;5.140;2023-06-01T04:52:40;6.58;118.99
65559;DHT22;52203;51.998;5.140;2023-06-01T04:55:07;6.63;118.99
65559;DHT22;52203;51.998;5.140;2023-06-01T04:57:34;6.54;118.99
65559;DHT22;52203;51.998;5.140;2023-06-01T05:00:03;6.57;118.99
65559;DHT22;52203;51.998;5.140;2023-06-01T05:02:32;6.63;118.99
65559;DHT22;52203;51.998;5.140;2023-06-01T05:04:57;6.71;118.99
65559;DHT22;52203;51.998;5.140;2023-06-01T05:07:23;6.74;118.99
65559;DHT22;52203;51.998;5.140;2023-06-01T05:09:49;6.82;118.99
65559;DHT22;52203;51.998;5.140;2023-06-01T05:12:15;6.89;118.99
65559;DHT22;52203;51.998;5.140;2023-06-01T05:14:40;6.96;118.99
65559;DHT22;52203;51.998;5.140;2023-06-01T05:17:06;6.99;118.99
65559;DHT22;52203;51.998;5.140;2023-06-01T05:19:31;7.00;118.99
65559;DHT22;52203;51.998;5.140;2023-06-01T05:21:57;7.04;118.99
65559;DHT22;52203;51.998;5.140;2023-06-01T05:24:22;7.03;118.99
65559;DHT22;52203;51.998;5.140;2023-06-01T05:26:48;7.07;118.99
65559;DHT22;52203;51.998;5.140;2023-06-01T05:29:13;7.08;118.99
65559;DHT22;52203;51.998;5.140;2023-06-01T05:31:38;7.08;118.99
65559;DHT22;52203;51.998;5.140;2023-06-01T05:34:05;7.09;118.99
65559;DHT22;52203;51.998;5.140;2023-06-01T05:36:31;7.11;118.99
65559;DHT22;52203;51.998;5.140;2023-06-01T05:38:57;7.12;118.99
65559;DHT22;52203;51.998;5.140;2023-06-01T05:41:23;7.25;118.99
65559;DHT22;52203;51.998;5.140;2023-06-01T05:43:49;7.42;118.99
65559;DHT22;52203;51.998;5.140;2023-06-01T05:46:16;8.34;118.99
65559;DHT22;52203;51.998;5.140;2023-06-01T05:48:41;8.29;118.99
65559;DHT22;52203;51.998;5.140;2023-06-01T05:51:07;7.84;118.99
65559;DHT22;52203;51.998;5.140;2023-06-01T05:53:32;8.02;118.99
65559;DHT22;52203;51.998;5.140;2023-06-01T05:55:58;7.97;118.99
65559;DHT22;52203;51.998;5.140;2023-06-01T05:58:23;7.91;118.99
65559;DHT22;52203;51.998;5.140;2023-06-01T06:00:48;7.87;118.99
65559;DHT22;52203;51.998;5.140;2023-06-01T06:03:14;7.79;118.99
65559;DHT22;52203;51.998;5.140;2023-06-01T06:05:39;7.76;118.99
65559;DHT22;52203;51.998;5.140;2023-06-01T06:08:05;7.74;118.99
65559;DHT22;52203;51.998;5.140;2023-06-01T06:10:31;7.75;118.99
65559;DHT22;52203;51.998;5.140;2023-06-01T06:12:56;7.76;118.99
65559;DHT22;52203;51.998;5.140;2023-06-01T06:15:22;7.78;118.99
65559;DHT22;52203;51.998;5.140;2023-06-01T06:17:47;7.85;118.99
65559;DHT22;52203;51.998;5.140;2023-06-01T06:20:13;7.93;118.99
65559;DHT22;52203;51.998;5.140;2023-06-01T06:22:41;8.08;118.99
65559;DHT22;52203;51.998;5.140;2023-06-01T06:25:06;8.33;118.99
65559;DHT22;52203;51.998;5.140;2023-06-01T06:27:33;8.58;118.99
65559;DHT22;52203;51.998;5.140;2023-06-01T06:29:59;8.62;118.99
65559;DHT22;52203;51.998;5.140;2023-06-01T06:32:25;8.78;118.99
65559;DHT22;52203;51.998;5.140;2023-06-01T06:34:50;9.05;118.99
65559;DHT22;52203;51.998;5.140;2023-06-01T06:37:16;8.57;118.99
65559;DHT22;52203;51.998;5.140;2023-06-01T06:39:41;8.47;118.99
65559;DHT22;52203;51.998;5.140;2023-06-01T06:42:07;8.48;118.99
65559;DHT22;52203;51.998;5.140;2023-06-01T06:44:32;8.56;118.99
65559;DHT22;52203;51.998;5.140;2023-06-01T06:46:58;8.60;118.99
65559;DHT22;52203;51.998;5.140;2023-06-01T06:49:25;8.58;118.99
65559;DHT22;52203;51.998;5.140;2023-06-01T06:51:51;8.59;118.99
65559;DHT22;52203;51.998;5.140;2023-06-01T06:54:17;8.61;118.99
65559;DHT22;52203;51.998;5.140;2023-06-01T06:56:42;8.65;118.99
65559;DHT22;52203;51.998;5.140;2023-06-01T06:59:08;8.74;118.99
65559;DHT22;52203;51.998;5.140;2023-06-01T07:01:34;8.73;118.99
65559;DHT22;52203;51.998;5.140;2023-06-01T07:04:06;9.91;118.99
65559;DHT22;52203;51.998;5.140;2023-06-01T07:06:31;8.93;118.99
65559;DHT22;52203;51.998;5.140;2023-06-01T07:09:00;9.10;118.99
65559;DHT22;52203;51.998;5.140;2023-06-01T07:11:27;9.49;118.99
65559;DHT22;52203;51.998;5.140;2023-06-01T07:13:54;9.32;118.99
65559;DHT22;52203;51.998;5.140;2023-06-01T07:16:22;9.48;118.99
65559;DHT22;52203;51.998;5.140;2023-06-01T07:18:48;9.63;118.99
65559;DHT22;52203;51.998;5.140;2023-06-01T07:21:13;9.79;118.99
65559;DHT22;52203;51.998;5.140;2023-06-01T07:23:41;9.79;118.99
65559;DHT22;52203;51.998;5.140;2023-06-01T07:26:08;9.80;118.99
65559;DHT22;52203;51.998;5.140;2023-06-01T07:28:34;9.82;118.99
65559;DHT22;52203;51.998;5.140;2023-06-01T07:30:59;9.91;118.99
65559;DHT22;52203;51.998;5.140;2023-06-01T07:33:25;9.97;118.99
65559;DHT22;52203;51.998;5.140;2023-06-01T07:35:51;9.97;118.99
65559;DHT22;52203;51.998;5.140;2023-06-01T07:38:21;9.98;118.99
65559;DHT22;52203;51.998;5.140;2023-06-01T07:40:47;10.01;118.99
65559;DHT22;52203;51.998;5.140;2023-06-01T07:43:14;10.04;118.99
65559;DHT22;52203;51.998;5.140;2023-06-01T07:45:39;10.10;118.99
65559;DHT22;52203;51.998;5.140;2023-06-01T07:48:05;10.13;118.99
65559;DHT22;52203;51.998;5.140;2023-06-01T07:50:31;10.15;118.99
65559;DHT22;52203;51.998;5.140;2023-06-01T07:52:57;10.20;118.99
65559;DHT22;52203;51.998;5.140;2023-06-01T07:55:23;10.31;118.99
65559;DHT22;52203;51.998;5.140;2023-06-01T07:57:49;11.94;118.99
65559;DHT22;52203;51.998;5.140;2023-06-01T08:00:15;10.55;118.99
65559;DHT22;52203;51.998;5.140;2023-06-01T08:02:43;10.83;118.99
65559;DHT22;52203;51.998;5.140;2023-06-01T08:05:09;10.94;118.99
65559;DHT22;52203;51.998;5.140;2023-06-01T08:07:35;12.45;118.99
65559;DHT22;52203;51.998;5.140;2023-06-01T08:10:06;12.53;118.99
65559;DHT22;52203;51.998;5.140;2023-06-01T08:12:32;12.56;118.99
65559;DHT22;52203;51.998;5.140;2023-06-01T08:14:58;12.48;118.99
65559;DHT22;52203;51.998;5.140;2023-06-01T08:17:24;12.45;118.99
65559;DHT22;52203;51.998;5.140;2023-06-01T08:19:50;12.44;118.99
65559;DHT22;52203;51.998;5.140;2023-06-01T08:22:16;12.35;118.99
65559;DHT22;52203;51.998;5.140;2023-06-01T08:24:42;12.32;118.99
65559;DHT22;52203;51.998;5.140;2023-06-01T08:27:19;12.41;118.99
65559;DHT22;52203;51.998;5.140;2023-06-01T08:29:45;12.44;118.99
65559;DHT22;52203;51.998;5.140;2023-06-01T08:32:12;12.66;118.99
65559;DHT22;52203;51.998;5.140;2023-06-01T08:34:37;12.90;118.99
65559;DHT22;52203;51.998;5.140;2023-06-01T08:37:03;13.21;118.99
65559;DHT22;52203;51.998;5.140;2023-06-01T08:39:29;13.58;118.99
65559;DHT22;52203;51.998;5.140;2023-06-01T08:42:06;13.85;118.99
65559;DHT22;52203;51.998;5.140;2023-06-01T08:44:38;14.10;118.99
65559;DHT22;52203;51.998;5.140;2023-06-01T08:47:04;14.44;118.99
65559;DHT22;52203;51.998;5.140;2023-06-01T08:49:31;14.78;118.99
65559;DHT22;52203;51.998;5.140;2023-06-01T08:52:04;15.22;118.99
65559;DHT22;52203;51.998;5.140;2023-06-01T08:54:32;15.44;118.99
65559;DHT22;52203;51.998;5.140;2023-06-01T08:57:03;15.61;118.99
65559;DHT22;52203;51.998;5.140;2023-06-01T08:59:29;15.75;118.99
65559;DHT22;52203;51.998;5.140;2023-06-01T09:01:57;15.74;118.99
65559;DHT22;52203;51.998;5.140;2023-06-01T09:04:22;15.78;118.99
65559;DHT22;52203;51.998;5.140;2023-06-01T09:06:48;15.76;118.99
65559;DHT22;52203;51.998;5.140;2023-06-01T09:09:13;15.59;118.99
65559;DHT22;52203;51.998;5.140;2023-06-01T09:11:39;15.47;118.99
65559;DHT22;52203;51.998;5.140;2023-06-01T09:14:24;15.44;118.99
65559;DHT22;52203;51.998;5.140;2023-06-01T09:16:51;15.40;118.99
65559;DHT22;52203;51.998;5.140;2023-06-01T09:19:17;15.51;118.99
65559;DHT22;52203;51.998;5.140;2023-06-01T09:21:58;15.58;118.99
65559;DHT22;52203;51.998;5.140;2023-06-01T09:24:24;15.57;118.99
65559;DHT22;52203;51.998;5.140;2023-06-01T09:26:50;15.72;118.99
65559;DHT22;52203;51.998;5.140;2023-06-01T09:29:16;15.95;118.99
65559;DHT22;52203;51.998;5.140;2023-06-01T09:31:44;16.14;118.99
65559;DHT22;52203;51.998;5.140;2023-06-01T09:34:15;16.16;118.99
65559;DHT22;52203;51.998;5.140;2023-06-01T09:36:43;16.28;118.99
65559;DHT22;52203;51.998;5.140;2023-06-01T09:39:10;16.30;118.99
65559;DHT22;52203;51.998;5.140;2023-06-01T09:46:55;16.50;118.99
65559;DHT22;52203;51.998;5.140;2023-06-01T09:51:47;16.57;118.99
65559;DHT22;52203;51.998;5.140;2023-06-01T09:54:23;16.63;118.99
65559;DHT22;52203;51.998;5.140;2023-06-01T09:56:49;16.66;118.99
65559;DHT22;52203;51.998;5.140;2023-06-01T09:59:15;16.65;118.99
65559;DHT22;52203;51.998;5.140;2023-06-01T10:01:42;16.79;118.99
65559;DHT22;52203;51.998;5.140;2023-06-01T10:04:09;16.86;118.99
65559;DHT22;52203;51.998;5.140;2023-06-01T10:06:38;16.92;118.99
65559;DHT22;52203;51.998;5.140;2023-06-01T10:09:09;17.02;118.99
65559;DHT22;52203;51.998;5.140;2023-06-01T10:11:38;17.01;118.99
65559;DHT22;52203;51.998;5.140;2023-06-01T10:14:04;17.15;118.99
65559;DHT22;52203;51.998;5.140;2023-06-01T10:16:29;17.17;118.99
65559;DHT22;52203;51.998;5.140;2023-06-01T10:18:56;17.23;118.99
65559;DHT22;52203;51.998;5.140;2023-06-01T10:21:23;17.11;118.99
65559;DHT22;52203;51.998;5.140;2023-06-01T10:23:49;17.09;118.99
65559;DHT22;52203;51.998;5.140;2023-06-01T10:26:16;17.16;118.99
65559;DHT22;52203;51.998;5.140;2023-06-01T10:28:45;17.16;118.99
65559;DHT22;52203;51.998;5.140;2023-06-01T10:31:35;17.20;118.99
65559;DHT22;52203;51.998;5.140;2023-06-01T10:34:04;17.26;118.99
65559;DHT22;52203;51.998;5.140;2023-06-01T10:39:27;17.49;118.99
65559;DHT22;52203;51.998;5.140;2023-06-01T10:41:56;17.69;118.99
65559;DHT22;52203;51.998;5.140;2023-06-01T10:44:54;17.68;118.99
65559;DHT22;52203;51.998;5.140;2023-06-01T10:52:26;17.47;118.99
65559;DHT22;52203;51.998;5.140;2023-06-01T10:54:53;17.44;118.99
65559;DHT22;52203;51.998;5.140;2023-06-01T10:57:20;17.45;118.99
65559;DHT22;52203;51.998;5.140;2023-06-01T11:02:50;17.39;118.99
65559;DHT22;52203;51.998;5.140;2023-06-01T11:13:30;17.45;118.99
65559;DHT22;52203;51.998;5.140;2023-06-01T11:18:59;17.25;118.99
65559;DHT22;52203;51.998;5.140;2023-06-01T11:21:37;17.32;118.99
65559;DHT22;52203;51.998;5.140;2023-06-01T11:26:38;17.07;118.99
65559;DHT22;52203;51.998;5.140;2023-06-01T11:29:23;17.01;118.99
65559;DHT22;52203;51.998;5.140;2023-06-01T11:31:56;16.88;118.99
65559;DHT22;52203;51.998;5.140;2023-06-01T11:36:56;16.95;118.99
65559;DHT22;52203;51.998;5.140;2023-06-01T11:39:23;16.98;118.99
65559;DHT22;52203;51.998;5.140;2023-06-01T11:42:06;16.99;118.99
65559;DHT22;52203;51.998;5.140;2023-06-01T11:44:39;16.87;118.99
65559;DHT22;52203;51.998;5.140;2023-06-01T11:47:06;16.92;118.99
65559;DHT22;52203;51.998;5.140;2023-06-01T11:49:49;16.91;118.99
65559;DHT22;52203;51.998;5.140;2023-06-01T11:52:19;16.89;118.99
65559;DHT22;52203;51.998;5.140;2023-06-01T11:54:46;16.86;118.99
65559;DHT22;52203;51.998;5.140;2023-06-01T11:57:12;16.89;118.99
65559;DHT22;52203;51.998;5.140;2023-06-01T11:59:38;16.92;118.99
65559;DHT22;52203;51.998;5.140;2023-06-01T12:02:21;16.94;118.99
65559;DHT22;52203;51.998;5.140;2023-06-01T12:05:04;16.99;118.99
65559;DHT22;52203;51.998;5.140;2023-06-01T12:07:51;16.95;118.99
65559;DHT22;52203;51.998;5.140;2023-06-01T12:10:19;17.08;118.99
65559;DHT22;52203;51.998;5.140;2023-06-01T12:12:45;17.07;118.99
65559;DHT22;52203;51.998;5.140;2023-06-01T12:15:14;17.07;118.99
65559;DHT22;52203;51.998;5.140;2023-06-01T12:17:47;17.17;118.99
65559;DHT22;52203;51.998;5.140;2023-06-01T12:20:28;17.22;118.99
65559;DHT22;52203;51.998;5.140;2023-06-01T12:22:54;17.26;118.99
65559;DHT22;52203;51.998;5.140;2023-06-01T12:25:24;17.25;118.99
65559;DHT22;52203;51.998;5.140;2023-06-01T12:28:07;17.32;118.99
65559;DHT22;52203;51.998;5.140;2023-06-01T12:30:33;17.21;118.99
65559;DHT22;52203;51.998;5.140;2023-06-01T12:32:59;17.11;118.99
65559;DHT22;52203;51.998;5.140;2023-06-01T12:35:25;16.92;118.99
65559;DHT22;52203;51.998;5.140;2023-06-01T12:38:07;16.87;118.99
65559;DHT22;52203;51.998;5.140;2023-06-01T12:40:35;16.81;118.99
65559;DHT22;52203;51.998;5.140;2023-06-01T12:43:00;16.57;118.99
65559;DHT22;52203;51.998;5.140;2023-06-01T12:45:34;16.31;118.99
65559;DHT22;52203;51.998;5.140;2023-06-01T12:48:01;16.18;118.99
65559;DHT22;52203;51.998;5.140;2023-06-01T12:50:27;16.01;118.99
65559;DHT22;52203;51.998;5.140;2023-06-01T12:52:52;15.97;118.99
65559;DHT22;52203;51.998;5.140;2023-06-01T12:55:18;14.21;118.99
65559;DHT22;52203;51.998;5.140;2023-06-01T12:57:52;14.15;118.99
65559;DHT22;52203;51.998;5.140;2023-06-01T13:00:18;14.12;118.99
65559;DHT22;52203;51.998;5.140;2023-06-01T13:02:44;14.07;118.99
65559;DHT22;52203;51.998;5.140;2023-06-01T13:05:14;14.01;118.99
65559;DHT22;52203;51.998;5.140;2023-06-01T13:07:41;13.92;118.99
65559;DHT22;52203;51.998;5.140;2023-06-01T13:10:07;13.85;118.99
65559;DHT22;52203;51.998;5.140;2023-06-01T13:12:34;13.69;118.99
65559;DHT22;52203;51.998;5.140;2023-06-01T13:15:00;13.49;118.99
65559;DHT22;52203;51.998;5.140;2023-06-01T13:17:26;13.36;118.99
65559;DHT22;52203;51.998;5.140;2023-06-01T13:19:52;13.29;118.99
65559;DHT22;52203;51.998;5.140;2023-06-01T13:22:18;13.04;118.99
65559;DHT22;52203;51.998;5.140;2023-06-01T13:24:44;12.88;118.99
65559;DHT22;52203;51.998;5.140;2023-06-01T13:27:09;12.80;118.99
65559;DHT22;52203;51.998;5.140;2023-06-01T13:29:35;12.62;118.99
65559;DHT22;52203;51.998;5.140;2023-06-01T13:32:01;12.49;118.99
65559;DHT22;52203;51.998;5.140;2023-06-01T13:34:26;12.42;118.99
65559;DHT22;52203;51.998;5.140;2023-06-01T13:36:52;12.28;118.99
65559;DHT22;52203;51.998;5.140;2023-06-01T13:39:17;12.17;118.99
65559;DHT22;52203;51.998;5.140;2023-06-01T13:41:43;12.10;118.99
65559;DHT22;52203;51.998;5.140;2023-06-01T13:44:08;11.88;118.99
65559;DHT22;52203;51.998;5.140;2023-06-01T13:46:34;11.69;118.99
65559;DHT22;52203;51.998;5.140;2023-06-01T13:48:59;11.55;118.99
65559;DHT22;52203;51.998;5.140;2023-06-01T13:51:24;11.43;118.99
65559;DHT22;52203;51.998;5.140;2023-06-01T13:53:50;11.28;118.99
65559;DHT22;52203;51.998;5.140;2023-06-01T13:56:15;11.18;118.99
65559;DHT22;52203;51.998;5.140;2023-06-01T13:58:41;11.18;118.99
65559;DHT22;52203;51.998;5.140;2023-06-01T14:01:07;11.10;118.99
65559;DHT22;52203;51.998;5.140;2023-06-01T14:03:32;11.08;118.99
65559;DHT22;52203;51.998;5.140;2023-06-01T14:05:58;11.09;118.99
65559;DHT22;52203;51.998;5.140;2023-06-01T14:08:23;11.09;118.99
65559;DHT22;52203;51.998;5.140;2023-06-01T14:10:49;11.09;118.99
65559;DHT22;52203;51.998;5.140;2023-06-01T14:13:14;11.11;118.99
65559;DHT22;52203;51.998;5.140;2023-06-01T14:15:40;11.17;118.99
65559;DHT22;52203;51.998;5.140;2023-06-01T14:18:06;11.25;118.99
65559;DHT22;52203;51.998;5.140;2023-06-01T14:20:31;11.34;118.99
65559;DHT22;52203;51.998;5.140;2023-06-01T14:22:58;11.43;118.99
65559;DHT22;52203;51.998;5.140;2023-06-01T14:25:25;11.46;118.99
65559;DHT22;52203;51.998;5.140;2023-06-01T14:27:51;11.48;118.99
65559;DHT22;52203;51.998;5.140;2023-06-01T14:30:16;11.49;118.99
65559;DHT22;52203;51.998;5.140;2023-06-01T14:32:42;11.46;118.99
65559;DHT22;52203;51.998;5.140;2023-06-01T14:35:07;11.53;118.99
65559;DHT22;52203;51.998;5.140;2023-06-01T14:37:33;11.51;118.99
65559;DHT22;52203;51.998;5.140;2023-06-01T14:39:58;11.42;118.99
65559;DHT22;52203;51.998;5.140;2023-06-01T14:42:24;11.41;118.99
65559;DHT22;52203;51.998;5.140;2023-06-01T14:44:49;11.31;118.99
65559;DHT22;52203;51.998;5.140;2023-06-01T14:47:15;11.31;118.99
65559;DHT22;52203;51.998;5.140;2023-06-01T14:49:40;11.23;118.99
65559;DHT22;52203;51.998;5.140;2023-06-01T14:52:06;11.24;118.99
65559;DHT22;52203;51.998;5.140;2023-06-01T14:54:32;11.16;118.99
65559;DHT22;52203;51.998;5.140;2023-06-01T14:56:57;11.11;118.99
65559;DHT22;52203;51.998;5.140;2023-06-01T14:59:23;11.02;118.99
65559;DHT22;52203;51.998;5.140;2023-06-01T15:01:49;10.93;118.99
65559;DHT22;52203;51.998;5.140;2023-06-01T15:04:14;10.75;118.99
65559;DHT22;52203;51.998;5.140;2023-06-01T15:06:40;10.64;118.99
65559;DHT22;52203;51.998;5.140;2023-06-01T15:09:05;10.53;118.99
65559;DHT22;52203;51.998;5.140;2023-06-01T15:11:31;10.46;118.99
65559;DHT22;52203;51.998;5.140;2023-06-01T15:13:57;10.37;118.99
65559;DHT22;52203;51.998;5.140;2023-06-01T15:16:23;10.40;118.99
65559;DHT22;52203;51.998;5.140;2023-06-01T15:18:50;10.41;118.99
65559;DHT22;52203;51.998;5.140;2023-06-01T15:21:15;10.42;118.99
65559;DHT22;52203;51.998;5.140;2023-06-01T15:23:41;10.45;118.99
65559;DHT22;52203;51.998;5.140;2023-06-01T15:26:06;10.46;118.99
65559;DHT22;52203;51.998;5.140;2023-06-01T15:28:32;10.45;118.99
65559;DHT22;52203;51.998;5.140;2023-06-01T15:30:57;10.48;118.99
65559;DHT22;52203;51.998;5.140;2023-06-01T15:33:23;10.48;118.99
65559;DHT22;52203;51.998;5.140;2023-06-01T15:35:48;10.49;118.99
65559;DHT22;52203;51.998;5.140;2023-06-01T15:38:14;10.46;118.99
65559;DHT22;52203;51.998;5.140;2023-06-01T15:40:39;10.43;118.99
65559;DHT22;52203;51.998;5.140;2023-06-01T15:43:05;10.48;118.99
65559;DHT22;52203;51.998;5.140;2023-06-01T15:45:31;10.52;118.99
65559;DHT22;52203;51.998;5.140;2023-06-01T15:47:56;10.50;118.99
65559;DHT22;52203;51.998;5.140;2023-06-01T15:50:22;10.53;118.99
65559;DHT22;52203;51.998;5.140;2023-06-01T15:52:47;10.51;118.99
65559;DHT22;52203;51.998;5.140;2023-06-01T15:55:14;10.48;118.99
65559;DHT22;52203;51.998;5.140;2023-06-01T15:57:40;10.46;118.99
65559;DHT22;52203;51.998;5.140;2023-06-01T16:00:06;10.49;118.99
65559;DHT22;52203;51.998;5.140;2023-06-01T16:02:31;10.43;118.99
65559;DHT22;52203;51.998;5.140;2023-06-01T16:04:57;10.42;118.99
65559;DHT22;52203;51.998;5.140;2023-06-01T16:07:22;10.45;118.99
65559;DHT22;52203;51.998;5.140;2023-06-01T16:09:48;10.46;118.99